createdAt,value
2017-10-14T00:00:46.132Z,0.00
2017-10-14T00:01:46.128Z,0.00
2017-10-14T00:02:46.122Z,0.00
2017-10-14T00:03:46.115Z,0.00
2017-10-14T00:04:46.110Z,0.00
2017-10-14T00:05:46.103Z,0.00
2017-10-14T00:06:46.098Z,0.00
2017-10-14T00:07:46.091Z,0.00
2017-10-14T00:08:46.084Z,0.00
2017-10-14T00:09:46.087Z,0.00
2017-10-14T00:10:46.070Z,0.00
2017-10-14T00:11:46.066Z,0.00
2017-10-14T00:12:46.057Z,0.00
2017-10-14T00:13:46.051Z,0.00
2017-10-14T00:14:46.044Z,0.00
2017-10-14T00:15:46.039Z,0.00
2017-10-14T00:16:46.033Z,0.00
2017-10-14T00:17:46.025Z,0.00
2017-10-14T00:18:46.022Z,0.00
2017-10-14T00:19:46.021Z,0.00
2017-10-14T00:20:46.005Z,0.00
2017-10-14T00:21:45.999Z,0.00
2017-10-14T00:22:45.994Z,0.00
2017-10-14T00:23:45.987Z,0.00
2017-10-14T00:24:45.981Z,0.00
2017-10-14T00:25:45.976Z,0.00
2017-10-14T00:26:45.965Z,0.00
2017-10-14T00:27:45.960Z,0.00
2017-10-14T00:28:45.955Z,0.00
2017-10-14T00:29:45.947Z,0.00
2017-10-14T00:30:45.943Z,0.00
2017-10-14T00:31:45.935Z,0.00
2017-10-14T00:32:45.928Z,0.00
2017-10-14T00:33:45.932Z,0.00
2017-10-14T00:34:45.921Z,0.00
2017-10-14T00:35:45.910Z,0.00
2017-10-14T00:36:45.903Z,0.00
2017-10-14T00:37:45.899Z,0.00
2017-10-14T00:38:45.889Z,0.00
2017-10-14T00:39:45.888Z,0.00
2017-10-14T00:40:45.874Z,0.00
2017-10-14T00:41:45.868Z,0.00
2017-10-14T00:42:45.863Z,0.00
2017-10-14T00:43:45.855Z,0.00
2017-10-14T00:44:45.850Z,0.00
2017-10-14T00:45:45.845Z,0.00
2017-10-14T00:46:45.837Z,0.00
2017-10-14T00:47:45.833Z,0.00
2017-10-14T00:48:45.823Z,0.00
2017-10-14T00:49:45.816Z,0.00
2017-10-14T00:50:45.813Z,0.00
2017-10-14T00:51:45.803Z,0.00
2017-10-14T00:52:45.799Z,0.00
2017-10-14T00:53:45.789Z,0.00
2017-10-14T00:54:45.784Z,0.00
2017-10-14T00:55:45.777Z,0.00
2017-10-14T00:56:45.777Z,0.00
2017-10-14T00:57:45.762Z,0.00
2017-10-14T00:58:45.756Z,0.00
2017-10-14T00:59:45.752Z,0.00
2017-10-14T01:00:45.743Z,0.00
2017-10-14T01:01:45.737Z,0.00
2017-10-14T01:02:45.732Z,0.00
2017-10-14T01:03:45.724Z,0.00
2017-10-14T01:04:45.718Z,0.00
2017-10-14T01:05:45.711Z,0.00
2017-10-14T01:06:45.705Z,0.00
2017-10-14T01:07:45.697Z,0.00
2017-10-14T01:08:45.689Z,0.00
2017-10-14T01:09:45.684Z,0.00
2017-10-14T01:10:45.675Z,0.00
2017-10-14T01:11:45.670Z,0.00
2017-10-14T01:12:45.677Z,0.00
2017-10-14T01:13:45.657Z,0.00
2017-10-14T01:14:45.650Z,0.00
2017-10-14T01:15:45.644Z,0.00
2017-10-14T01:16:45.635Z,0.00
2017-10-14T01:17:45.634Z,0.00
2017-10-14T01:18:45.623Z,0.00
2017-10-14T01:19:45.617Z,0.00
2017-10-14T01:20:45.611Z,0.00
2017-10-14T01:21:45.603Z,0.00
2017-10-14T01:22:45.600Z,0.00
2017-10-14T01:23:45.590Z,0.00
2017-10-14T01:24:45.584Z,0.00
2017-10-14T01:25:45.583Z,0.00
2017-10-14T01:26:45.569Z,0.00
2017-10-14T01:27:45.565Z,0.00
2017-10-14T01:28:45.556Z,0.00
2017-10-14T01:29:45.551Z,0.00
2017-10-14T01:30:45.543Z,0.00
2017-10-14T01:31:45.537Z,0.00
2017-10-14T01:32:45.537Z,0.00
2017-10-14T01:33:45.530Z,0.00
2017-10-14T01:34:45.517Z,0.00
2017-10-14T01:35:45.510Z,0.00
2017-10-14T01:36:45.502Z,0.00
2017-10-14T01:37:45.498Z,0.00
2017-10-14T01:38:45.489Z,0.00
2017-10-14T01:39:45.489Z,0.00
2017-10-14T01:40:45.492Z,0.00
2017-10-14T01:41:45.470Z,0.00
2017-10-14T01:42:45.464Z,0.00
2017-10-14T01:43:45.457Z,0.00
2017-10-14T01:44:45.455Z,0.00
2017-10-14T01:45:45.451Z,0.00
2017-10-14T01:46:45.437Z,0.00
2017-10-14T01:47:45.433Z,0.00
2017-10-14T01:48:45.422Z,0.00
2017-10-14T01:49:45.416Z,0.00
2017-10-14T01:50:45.412Z,0.00
2017-10-14T01:51:45.403Z,0.00
2017-10-14T01:52:45.396Z,0.00
2017-10-14T01:53:45.393Z,0.00
2017-10-14T01:54:45.385Z,0.00
2017-10-14T01:55:45.378Z,0.00
2017-10-14T01:56:45.369Z,0.00
2017-10-14T01:57:45.363Z,0.00
2017-10-14T01:58:45.357Z,0.00
2017-10-14T01:59:45.364Z,0.00
2017-10-14T02:00:45.348Z,0.00
2017-10-14T02:01:45.339Z,0.00
2017-10-14T02:02:45.328Z,0.00
2017-10-14T02:03:45.324Z,0.00
2017-10-14T02:04:45.317Z,0.00
2017-10-14T02:05:45.310Z,0.00
2017-10-14T02:06:45.304Z,0.00
2017-10-14T02:07:45.298Z,0.00
2017-10-14T02:08:45.291Z,0.00
2017-10-14T02:09:45.283Z,0.00
2017-10-14T02:10:45.277Z,0.00
2017-10-14T02:11:45.271Z,0.00
2017-10-14T02:12:45.263Z,0.00
2017-10-14T02:13:45.258Z,0.00
2017-10-14T02:14:45.252Z,0.00
2017-10-14T02:15:45.246Z,0.00
2017-10-14T02:16:45.237Z,0.00
2017-10-14T02:17:45.231Z,0.00
2017-10-14T02:18:45.225Z,0.00
2017-10-14T02:19:45.221Z,0.00
2017-10-14T02:20:45.210Z,0.00
2017-10-14T02:21:45.204Z,0.00
2017-10-14T02:22:45.199Z,0.00
2017-10-14T02:23:45.190Z,0.00
2017-10-14T02:24:45.184Z,0.00
2017-10-14T02:25:45.178Z,0.00
2017-10-14T02:26:45.170Z,0.00
2017-10-14T02:27:45.165Z,0.00
2017-10-14T02:28:45.156Z,0.00
2017-10-14T02:29:45.151Z,0.00
2017-10-14T02:30:45.144Z,0.00
2017-10-14T02:31:45.137Z,0.00
2017-10-14T02:32:45.133Z,0.00
2017-10-14T02:33:45.129Z,0.00
2017-10-14T02:34:45.120Z,0.00
2017-10-14T02:35:45.112Z,0.00
2017-10-14T02:36:45.101Z,0.00
2017-10-14T02:37:45.096Z,0.00
2017-10-14T02:38:45.088Z,0.00
2017-10-14T02:39:45.082Z,0.00
2017-10-14T02:40:45.077Z,0.00
2017-10-14T02:41:45.076Z,0.00
2017-10-14T02:42:45.060Z,0.00
2017-10-14T02:43:45.055Z,0.00
2017-10-14T02:44:45.056Z,0.00
2017-10-14T02:45:45.042Z,0.00
2017-10-14T02:46:45.042Z,0.00
2017-10-14T02:47:45.029Z,0.00
2017-10-14T02:48:45.020Z,0.00
2017-10-14T02:49:45.013Z,0.00
2017-10-14T02:50:45.007Z,0.00
2017-10-14T02:51:45.000Z,0.00
2017-10-14T02:52:44.995Z,0.00
2017-10-14T02:53:44.985Z,0.00
2017-10-14T02:54:44.981Z,0.00
2017-10-14T02:55:44.976Z,0.00
2017-10-14T02:56:44.964Z,0.00
2017-10-14T02:57:44.959Z,0.00
2017-10-14T02:58:44.953Z,0.00
2017-10-14T02:59:44.947Z,0.00
2017-10-14T03:00:44.942Z,0.00
2017-10-14T03:01:44.931Z,0.00
2017-10-14T03:02:44.926Z,0.00
2017-10-14T03:03:44.922Z,0.00
2017-10-14T03:04:44.910Z,0.00
2017-10-14T03:05:44.902Z,0.00
2017-10-14T03:06:44.900Z,0.00
2017-10-14T03:07:44.889Z,0.00
2017-10-14T03:08:44.884Z,0.00
2017-10-14T03:09:44.875Z,0.00
2017-10-14T03:10:46.132Z,0.00
2017-10-14T03:11:44.863Z,0.00
2017-10-14T03:12:44.915Z,0.00
2017-10-14T03:13:44.850Z,0.00
2017-10-14T03:14:44.842Z,0.00
2017-10-14T03:15:44.835Z,0.00
2017-10-14T03:16:44.828Z,0.00
2017-10-14T03:17:44.834Z,0.00
2017-10-14T03:18:44.813Z,0.00
2017-10-14T03:19:44.806Z,0.00
2017-10-14T03:20:44.801Z,0.00
2017-10-14T03:21:44.792Z,0.00
2017-10-14T03:22:44.785Z,0.00
2017-10-14T03:23:44.787Z,0.00
2017-10-14T03:24:44.770Z,0.00
2017-10-14T03:25:44.764Z,0.00
2017-10-14T03:26:44.756Z,0.00
2017-10-14T03:27:44.750Z,0.00
2017-10-14T03:28:44.752Z,0.00
2017-10-14T03:29:44.736Z,0.00
2017-10-14T03:30:44.730Z,0.00
2017-10-14T03:31:44.725Z,0.00
2017-10-14T03:32:44.715Z,0.00
2017-10-14T03:33:44.707Z,0.00
2017-10-14T03:34:44.700Z,0.00
2017-10-14T03:35:44.692Z,0.00
2017-10-14T03:36:44.686Z,0.00
2017-10-14T03:37:44.679Z,0.00
2017-10-14T03:38:44.673Z,0.00
2017-10-14T03:39:44.670Z,0.00
2017-10-14T03:40:44.659Z,0.00
2017-10-14T03:41:44.650Z,0.00
2017-10-14T03:42:44.649Z,0.00
2017-10-14T03:43:44.636Z,0.00
2017-10-14T03:44:44.629Z,0.00
2017-10-14T03:45:44.624Z,0.00
2017-10-14T03:46:44.615Z,0.00
2017-10-14T03:47:44.607Z,0.00
2017-10-14T03:48:44.598Z,0.00
2017-10-14T03:49:44.606Z,0.00
2017-10-14T03:50:44.587Z,0.00
2017-10-14T03:51:44.578Z,0.00
2017-10-14T03:52:44.573Z,0.00
2017-10-14T03:53:44.569Z,0.00
2017-10-14T03:54:44.558Z,0.00
2017-10-14T03:55:44.549Z,0.00
2017-10-14T03:56:44.542Z,0.00
2017-10-14T03:57:44.534Z,0.00
2017-10-14T03:58:44.526Z,0.00
2017-10-14T03:59:44.527Z,0.00
2017-10-14T04:00:44.512Z,0.00
2017-10-14T04:01:44.506Z,0.00
2017-10-14T04:02:44.498Z,0.00
2017-10-14T04:03:44.495Z,0.00
2017-10-14T04:04:44.483Z,0.00
2017-10-14T04:05:44.477Z,0.00
2017-10-14T04:06:44.487Z,0.00
2017-10-14T04:07:44.465Z,0.00
2017-10-14T04:08:44.459Z,0.00
2017-10-14T04:09:44.452Z,0.00
2017-10-14T04:10:44.443Z,0.00
2017-10-14T04:11:44.435Z,0.00
2017-10-14T04:12:44.425Z,0.00
2017-10-14T04:13:44.418Z,0.00
2017-10-14T04:14:44.411Z,0.00
2017-10-14T04:15:44.410Z,0.00
2017-10-14T04:16:44.395Z,0.00
2017-10-14T04:17:44.391Z,0.00
2017-10-14T04:18:44.392Z,0.00
2017-10-14T04:19:44.374Z,0.00
2017-10-14T04:20:44.367Z,0.00
2017-10-14T04:21:44.363Z,0.00
2017-10-14T04:22:44.354Z,0.00
2017-10-14T04:23:44.346Z,0.00
2017-10-14T04:24:44.340Z,0.00
2017-10-14T04:25:44.348Z,0.00
2017-10-14T04:26:44.324Z,0.00
2017-10-14T04:27:44.316Z,0.00
2017-10-14T04:28:44.307Z,0.00
2017-10-14T04:29:44.300Z,0.00
2017-10-14T04:30:44.294Z,0.00
2017-10-14T04:31:44.292Z,0.00
2017-10-14T04:32:44.280Z,0.00
2017-10-14T04:33:44.272Z,0.00
2017-10-14T04:34:44.264Z,0.00
2017-10-14T04:35:44.257Z,0.00
2017-10-14T04:36:44.248Z,0.00
2017-10-14T04:37:44.240Z,0.00
2017-10-14T04:38:44.235Z,0.00
2017-10-14T04:39:44.227Z,0.00
2017-10-14T04:40:44.219Z,0.00
2017-10-14T04:41:44.214Z,0.00
2017-10-14T04:42:44.205Z,0.00
2017-10-14T04:43:44.199Z,0.00
2017-10-14T04:44:44.192Z,0.00
2017-10-14T04:45:44.188Z,0.00
2017-10-14T04:46:44.175Z,0.00
2017-10-14T04:47:44.177Z,0.00
2017-10-14T04:48:44.165Z,0.00
2017-10-14T04:49:44.157Z,0.00
2017-10-14T04:50:44.148Z,0.00
2017-10-14T04:51:44.138Z,0.00
2017-10-14T04:52:44.131Z,0.00
2017-10-14T04:53:44.123Z,0.00
2017-10-14T04:54:44.117Z,0.00
2017-10-14T04:55:44.110Z,0.00
2017-10-14T04:56:44.103Z,0.00
2017-10-14T04:57:44.098Z,0.00
2017-10-14T04:58:44.086Z,0.00
2017-10-14T04:59:44.081Z,0.00
2017-10-14T05:00:44.076Z,0.00
2017-10-14T05:01:44.064Z,0.00
2017-10-14T05:02:44.059Z,0.00
2017-10-14T05:03:44.051Z,0.00
2017-10-14T05:04:44.043Z,0.00
2017-10-14T05:05:44.035Z,0.00
2017-10-14T05:06:44.034Z,0.00
2017-10-14T05:07:44.019Z,0.00
2017-10-14T05:08:44.012Z,0.00
2017-10-14T05:09:44.007Z,0.00
2017-10-14T05:10:43.998Z,0.00
2017-10-14T05:11:43.993Z,0.00
2017-10-14T05:12:43.982Z,0.00
2017-10-14T05:13:43.974Z,0.00
2017-10-14T05:14:43.972Z,0.00
2017-10-14T05:15:43.966Z,0.00
2017-10-14T05:16:43.951Z,0.00
2017-10-14T05:17:43.964Z,0.00
2017-10-14T05:18:43.937Z,0.00
2017-10-14T05:19:43.930Z,4.00
2017-10-14T05:20:43.921Z,4.00
2017-10-14T05:21:43.916Z,4.00
2017-10-14T05:22:43.913Z,0.00
2017-10-14T05:23:43.901Z,4.00
2017-10-14T05:24:43.895Z,4.00
2017-10-14T05:25:43.884Z,8.00
2017-10-14T05:26:43.887Z,4.00
2017-10-14T05:27:43.869Z,8.00
2017-10-14T05:28:43.866Z,12.00
2017-10-14T05:29:43.854Z,12.00
2017-10-14T05:30:43.853Z,12.00
2017-10-14T05:31:43.841Z,16.00
2017-10-14T05:32:43.830Z,20.00
2017-10-14T05:33:43.828Z,28.00
2017-10-14T05:34:43.817Z,32.00
2017-10-14T05:35:43.814Z,36.00
2017-10-14T05:36:43.828Z,44.00
2017-10-14T05:37:43.796Z,52.00
2017-10-14T05:38:43.786Z,64.00
2017-10-14T05:39:43.779Z,72.00
2017-10-14T05:40:43.769Z,80.00
2017-10-14T05:41:43.781Z,96.00
2017-10-14T05:42:43.764Z,108.00
2017-10-14T05:43:43.748Z,120.00
2017-10-14T05:44:43.742Z,136.00
2017-10-14T05:45:43.736Z,152.00
2017-10-14T05:46:43.725Z,172.00
2017-10-14T05:47:43.717Z,188.00
2017-10-14T05:48:43.715Z,208.00
2017-10-14T05:49:43.704Z,232.00
2017-10-14T05:50:43.697Z,256.00
2017-10-14T05:51:43.691Z,280.00
2017-10-14T05:52:43.681Z,304.00
2017-10-14T05:53:43.675Z,332.00
2017-10-14T05:54:43.664Z,360.00
2017-10-14T05:55:43.662Z,388.00
2017-10-14T05:56:43.649Z,420.00
2017-10-14T05:57:43.647Z,452.00
2017-10-14T05:58:43.642Z,484.00
2017-10-14T05:59:43.626Z,520.00
2017-10-14T06:00:43.621Z,552.00
2017-10-14T06:01:43.610Z,592.00
2017-10-14T06:02:43.612Z,628.00
2017-10-14T06:03:43.600Z,668.00
2017-10-14T06:04:43.588Z,712.00
2017-10-14T06:05:43.589Z,752.00
2017-10-14T06:06:43.575Z,796.00
2017-10-14T06:07:43.565Z,840.00
2017-10-14T06:08:43.561Z,880.00
2017-10-14T06:09:43.549Z,924.00
2017-10-14T06:10:43.552Z,980.00
2017-10-14T06:11:43.540Z,1024.00
2017-10-14T06:12:43.528Z,1076.00
2017-10-14T06:13:43.522Z,1124.00
2017-10-14T06:14:43.517Z,1172.00
2017-10-14T06:15:43.510Z,1224.00
2017-10-14T06:16:43.498Z,1276.00
2017-10-14T06:17:43.491Z,1320.00
2017-10-14T06:18:43.483Z,1364.00
2017-10-14T06:19:43.472Z,1416.00
2017-10-14T06:20:43.464Z,1468.00
2017-10-14T06:21:43.460Z,1520.00
2017-10-14T06:22:43.450Z,1572.00
2017-10-14T06:23:43.443Z,1620.00
2017-10-14T06:24:43.434Z,1668.00
2017-10-14T06:25:43.425Z,1716.00
2017-10-14T06:26:43.419Z,1756.00
2017-10-14T06:27:43.410Z,1808.00
2017-10-14T06:28:43.405Z,1852.00
2017-10-14T06:29:43.397Z,1896.00
2017-10-14T06:30:43.388Z,1944.00
2017-10-14T06:31:43.383Z,2008.00
2017-10-14T06:32:43.372Z,2064.00
2017-10-14T06:33:43.366Z,2116.00
2017-10-14T06:34:43.360Z,2176.00
2017-10-14T06:35:43.446Z,2228.00
2017-10-14T06:36:43.372Z,2260.00
2017-10-14T06:37:43.338Z,2328.00
2017-10-14T06:38:43.328Z,2364.00
2017-10-14T06:39:43.324Z,2424.00
2017-10-14T06:40:43.311Z,2472.00
2017-10-14T06:41:43.305Z,2496.00
2017-10-14T06:42:43.302Z,2564.00
2017-10-14T06:43:43.294Z,2624.00
2017-10-14T06:44:43.285Z,2636.00
2017-10-14T06:45:43.280Z,2688.00
2017-10-14T06:46:43.278Z,2728.00
2017-10-14T06:47:43.259Z,2780.00
2017-10-14T06:48:43.252Z,2836.00
2017-10-14T06:49:43.243Z,2908.00
2017-10-14T06:50:43.236Z,2928.00
2017-10-14T06:51:43.229Z,2988.00
2017-10-14T06:52:43.227Z,3036.00
2017-10-14T06:53:43.223Z,3104.00
2017-10-14T06:54:43.212Z,3128.00
2017-10-14T06:55:43.204Z,3140.00
2017-10-14T06:56:43.192Z,3208.00
2017-10-14T06:57:43.183Z,3276.00
2017-10-14T06:58:43.175Z,3308.00
2017-10-14T06:59:43.172Z,3396.00
2017-10-14T07:00:43.163Z,3416.00
2017-10-14T07:01:43.154Z,3468.00
2017-10-14T07:02:43.146Z,3472.00
2017-10-14T07:03:43.144Z,3512.00
2017-10-14T07:04:43.132Z,3508.00
2017-10-14T07:05:43.122Z,3612.00
2017-10-14T07:06:43.116Z,3604.00
2017-10-14T07:07:43.109Z,3676.00
2017-10-14T07:08:43.099Z,3704.00
2017-10-14T07:09:43.095Z,3664.00
2017-10-14T07:10:43.087Z,3780.00
2017-10-14T07:11:43.083Z,3756.00
2017-10-14T07:12:43.090Z,3800.00
2017-10-14T07:13:43.086Z,3772.00
2017-10-14T07:14:43.086Z,3888.00
2017-10-14T07:15:43.050Z,3876.00
2017-10-14T07:16:43.041Z,3960.00
2017-10-14T07:17:43.037Z,3976.00
2017-10-14T07:18:43.029Z,4004.00
2017-10-14T07:19:43.019Z,4036.00
2017-10-14T07:20:43.011Z,4104.00
2017-10-14T07:21:43.005Z,4092.00
2017-10-14T07:22:42.997Z,4140.00
2017-10-14T07:23:42.991Z,4136.00
2017-10-14T07:24:42.981Z,4160.00
2017-10-14T07:25:42.980Z,4208.00
2017-10-14T07:26:42.980Z,4220.00
2017-10-14T07:27:42.961Z,4248.00
2017-10-14T07:28:42.958Z,4304.00
2017-10-14T07:29:42.945Z,4324.00
2017-10-14T07:30:42.939Z,4364.00
2017-10-14T07:31:42.936Z,4396.00
2017-10-14T07:32:42.922Z,4508.00
2017-10-14T07:33:42.916Z,4456.00
2017-10-14T07:34:42.908Z,4512.00
2017-10-14T07:35:42.900Z,4600.00
2017-10-14T07:36:42.935Z,4624.00
2017-10-14T07:37:42.886Z,4688.00
2017-10-14T07:38:42.885Z,4728.00
2017-10-14T07:39:42.874Z,4760.00
2017-10-14T07:40:42.865Z,4828.00
2017-10-14T07:41:42.858Z,4932.00
2017-10-14T07:42:42.849Z,4964.00
2017-10-14T07:43:42.843Z,4980.00
2017-10-14T07:44:42.840Z,4928.00
2017-10-14T07:45:42.841Z,4980.00
2017-10-14T07:46:42.825Z,4984.00
2017-10-14T07:47:42.814Z,4976.00
2017-10-14T07:48:42.807Z,5060.00
2017-10-14T07:49:42.802Z,5052.00
2017-10-14T07:50:42.792Z,5068.00
2017-10-14T07:51:42.785Z,5056.00
2017-10-14T07:52:42.780Z,5196.00
2017-10-14T07:53:42.774Z,5176.00
2017-10-14T07:54:42.767Z,5056.00
2017-10-14T07:55:42.762Z,5140.00
2017-10-14T07:56:42.752Z,5248.00
2017-10-14T07:57:42.744Z,5216.00
2017-10-14T07:58:42.737Z,5208.00
2017-10-14T07:59:42.732Z,5228.00
2017-10-14T08:00:42.724Z,5256.00
2017-10-14T08:01:42.719Z,5248.00
2017-10-14T08:02:42.710Z,5248.00
2017-10-14T08:03:42.705Z,5312.00
2017-10-14T08:04:42.695Z,5280.00
2017-10-14T08:05:42.693Z,5380.00
2017-10-14T08:06:42.681Z,5456.00
2017-10-14T08:07:42.676Z,5452.00
2017-10-14T08:08:42.666Z,5484.00
2017-10-14T08:09:42.669Z,5572.00
2017-10-14T08:10:42.655Z,5552.00
2017-10-14T08:11:42.649Z,5668.00
2017-10-14T08:12:42.644Z,5600.00
2017-10-14T08:13:42.635Z,5556.00
2017-10-14T08:14:42.627Z,5476.00
2017-10-14T08:15:42.619Z,5668.00
2017-10-14T08:16:42.612Z,5628.00
2017-10-14T08:17:42.605Z,5592.00
2017-10-14T08:18:42.599Z,5648.00
2017-10-14T08:19:42.595Z,5748.00
2017-10-14T08:20:42.586Z,5820.00
2017-10-14T08:21:42.578Z,5752.00
2017-10-14T08:22:42.572Z,5892.00
2017-10-14T08:23:42.564Z,5884.00
2017-10-14T08:24:42.560Z,5952.00
2017-10-14T08:25:42.553Z,6120.00
2017-10-14T08:26:42.546Z,6104.00
2017-10-14T08:27:42.559Z,5928.00
2017-10-14T08:28:42.532Z,6004.00
2017-10-14T08:29:42.525Z,6372.00
2017-10-14T08:30:42.522Z,6532.00
2017-10-14T08:31:42.521Z,6600.00
2017-10-14T08:32:42.508Z,6560.00
2017-10-14T08:33:42.499Z,6908.00
2017-10-14T08:34:42.496Z,7552.00
2017-10-14T08:35:42.490Z,7356.00
2017-10-14T08:36:42.478Z,8612.00
2017-10-14T08:37:42.477Z,9352.00
2017-10-14T08:38:42.468Z,14840.00
2017-10-14T08:39:42.461Z,14876.00
2017-10-14T08:40:42.454Z,10592.00
2017-10-14T08:41:42.448Z,12560.00
2017-10-14T08:42:42.441Z,14544.00
2017-10-14T08:43:42.437Z,30208.00
2017-10-14T08:44:42.429Z,56672.00
2017-10-14T08:45:42.422Z,55872.00
2017-10-14T08:46:42.417Z,56800.00
2017-10-14T08:47:42.411Z,59552.00
2017-10-14T08:48:42.404Z,61760.00
2017-10-14T08:49:42.400Z,63168.00
2017-10-14T08:50:42.395Z,63008.00
2017-10-14T08:51:42.395Z,61920.00
2017-10-14T08:52:42.385Z,60928.00
2017-10-14T08:53:42.381Z,60384.00
2017-10-14T08:54:42.378Z,58624.00
2017-10-14T08:55:42.375Z,56800.00
2017-10-14T08:56:42.369Z,54944.00
2017-10-14T08:57:42.375Z,55200.00
2017-10-14T08:58:42.365Z,57152.00
2017-10-14T08:59:42.360Z,59808.00
2017-10-14T09:00:42.358Z,62336.00
2017-10-14T09:01:42.358Z,63744.00
2017-10-14T09:02:42.378Z,63360.00
2017-10-14T09:03:42.355Z,63648.00
2017-10-14T09:04:42.354Z,62848.00
2017-10-14T09:05:42.353Z,63168.00
2017-10-14T09:06:42.357Z,62976.00
2017-10-14T09:07:42.353Z,63616.00
2017-10-14T09:08:42.351Z,61792.00
2017-10-14T09:09:42.353Z,61280.00
2017-10-14T09:10:42.355Z,60480.00
2017-10-14T09:11:42.354Z,60832.00
2017-10-14T09:12:42.354Z,61856.00
2017-10-14T09:13:42.355Z,63296.00
2017-10-14T09:14:42.356Z,64448.00
2017-10-14T09:15:42.360Z,64928.00
2017-10-14T09:16:42.360Z,66912.00
2017-10-14T09:17:42.365Z,68288.00
2017-10-14T09:18:42.364Z,68800.00
2017-10-14T09:19:42.367Z,68448.00
2017-10-14T09:20:42.368Z,67104.00
2017-10-14T09:21:42.371Z,66400.00
2017-10-14T09:22:42.376Z,67456.00
2017-10-14T09:23:42.381Z,68480.00
2017-10-14T09:24:42.382Z,69536.00
2017-10-14T09:25:42.383Z,68736.00
2017-10-14T09:26:42.386Z,68224.00
2017-10-14T09:27:42.390Z,66496.00
2017-10-14T09:28:42.393Z,66816.00
2017-10-14T09:29:42.396Z,65504.00
2017-10-14T09:30:42.400Z,65120.00
2017-10-14T09:31:42.409Z,65504.00
2017-10-14T09:32:42.408Z,66656.00
2017-10-14T09:33:42.414Z,69632.00
2017-10-14T09:34:42.418Z,68064.00
2017-10-14T09:35:42.421Z,68640.00
2017-10-14T09:36:42.425Z,70464.00
2017-10-14T09:37:42.429Z,71456.00
2017-10-14T09:38:42.435Z,72960.00
2017-10-14T09:39:42.445Z,73664.00
2017-10-14T09:40:42.444Z,70880.00
2017-10-14T09:41:42.453Z,68032.00
2017-10-14T09:42:42.457Z,66976.00
2017-10-14T09:43:42.465Z,67328.00
2017-10-14T09:44:42.469Z,66368.00
2017-10-14T09:45:42.471Z,68032.00
2017-10-14T09:46:42.476Z,70432.00
2017-10-14T09:47:42.482Z,71232.00
2017-10-14T09:48:42.486Z,71264.00
2017-10-14T09:49:42.498Z,71104.00
2017-10-14T09:50:42.498Z,71616.00
2017-10-14T09:51:42.513Z,69312.00
2017-10-14T09:52:42.529Z,69024.00
2017-10-14T09:53:42.514Z,68512.00
2017-10-14T09:54:42.519Z,68512.00
2017-10-14T09:55:42.527Z,69792.00
2017-10-14T09:56:42.533Z,73568.00
2017-10-14T09:57:42.537Z,76032.00
2017-10-14T09:58:42.543Z,75776.00
2017-10-14T09:59:42.567Z,77664.00
2017-10-14T10:00:42.556Z,77504.00
2017-10-14T10:01:42.563Z,76576.00
2017-10-14T10:02:42.570Z,75840.00
2017-10-14T10:03:42.574Z,76256.00
2017-10-14T10:04:42.580Z,74912.00
2017-10-14T10:05:42.590Z,74016.00
2017-10-14T10:06:42.596Z,72288.00
2017-10-14T10:07:42.602Z,72224.00
2017-10-14T10:08:42.606Z,71968.00
2017-10-14T10:09:42.613Z,74400.00
2017-10-14T10:10:42.619Z,75776.00
2017-10-14T10:11:42.627Z,75392.00
2017-10-14T10:12:42.634Z,75264.00
2017-10-14T10:13:42.640Z,74112.00
2017-10-14T10:14:42.648Z,73664.00
2017-10-14T10:15:42.661Z,76032.00
2017-10-14T10:16:42.662Z,77824.00
2017-10-14T10:17:42.667Z,74848.00
2017-10-14T10:18:42.674Z,76768.00
2017-10-14T10:19:42.682Z,74432.00
2017-10-14T10:20:42.686Z,75040.00
2017-10-14T10:21:42.695Z,76448.00
2017-10-14T10:22:42.702Z,78304.00
2017-10-14T10:23:42.710Z,78592.00
2017-10-14T10:24:42.714Z,80480.00
2017-10-14T10:25:42.724Z,81312.00
2017-10-14T10:26:42.734Z,79776.00
2017-10-14T10:27:42.740Z,80640.00
2017-10-14T10:28:42.744Z,82016.00
2017-10-14T10:29:42.751Z,82144.00
2017-10-14T10:30:42.761Z,85024.00
2017-10-14T10:31:42.769Z,89184.00
2017-10-14T10:32:42.777Z,89120.00
2017-10-14T10:33:42.788Z,87392.00
2017-10-14T10:34:42.789Z,85184.00
2017-10-14T10:35:42.797Z,80992.00
2017-10-14T10:36:42.804Z,79808.00
2017-10-14T10:37:42.812Z,80320.00
2017-10-14T10:38:42.819Z,84192.00
2017-10-14T10:39:42.826Z,85824.00
2017-10-14T10:40:42.836Z,86528.00
2017-10-14T10:41:42.840Z,85312.00
2017-10-14T10:42:42.847Z,87104.00
2017-10-14T10:43:42.856Z,86912.00
2017-10-14T10:44:42.864Z,87680.00
2017-10-14T10:45:42.871Z,92224.00
2017-10-14T10:46:42.878Z,95008.00
2017-10-14T10:47:42.890Z,92864.00
2017-10-14T10:48:42.893Z,92032.00
2017-10-14T10:49:42.901Z,91264.00
2017-10-14T10:50:42.910Z,92704.00
2017-10-14T10:51:42.916Z,90688.00
2017-10-14T10:52:42.926Z,87168.00
2017-10-14T10:53:42.934Z,78656.00
2017-10-14T10:54:42.942Z,72448.00
2017-10-14T10:55:42.954Z,73664.00
2017-10-14T10:56:42.956Z,68832.00
2017-10-14T10:57:42.965Z,63488.00
2017-10-14T10:58:42.981Z,56640.00
2017-10-14T10:59:42.981Z,52384.00
2017-10-14T11:00:42.988Z,49472.00
2017-10-14T11:01:42.997Z,49440.00
2017-10-14T11:02:43.008Z,50528.00
2017-10-14T11:03:43.016Z,53728.00
2017-10-14T11:04:43.027Z,56384.00
2017-10-14T11:05:43.030Z,58208.00
2017-10-14T11:06:43.038Z,66592.00
2017-10-14T11:07:43.046Z,66272.00
2017-10-14T11:08:43.055Z,68544.00
2017-10-14T11:09:43.064Z,80544.00
2017-10-14T11:10:43.070Z,84960.00
2017-10-14T11:11:43.078Z,83456.00
2017-10-14T11:12:43.086Z,87328.00
2017-10-14T11:13:43.095Z,90752.00
2017-10-14T11:14:43.104Z,85472.00
2017-10-14T11:15:43.115Z,79424.00
2017-10-14T11:16:43.120Z,71744.00
2017-10-14T11:17:43.129Z,76800.00
2017-10-14T11:18:43.136Z,80672.00
2017-10-14T11:19:43.148Z,72640.00
2017-10-14T11:20:43.158Z,76704.00
2017-10-14T11:21:43.163Z,78880.00
2017-10-14T11:22:43.171Z,69504.00
2017-10-14T11:23:43.179Z,66976.00
2017-10-14T11:24:43.190Z,62912.00
2017-10-14T11:25:43.195Z,62272.00
2017-10-14T11:26:43.204Z,69184.00
2017-10-14T11:27:43.212Z,66400.00
2017-10-14T11:28:43.223Z,55520.00
2017-10-14T11:29:43.231Z,61568.00
2017-10-14T11:30:43.237Z,66784.00
2017-10-14T11:31:43.244Z,61312.00
2017-10-14T11:32:43.257Z,66976.00
2017-10-14T11:33:43.264Z,69920.00
2017-10-14T11:34:43.269Z,73728.00
2017-10-14T11:35:43.277Z,75456.00
2017-10-14T11:36:43.288Z,71968.00
2017-10-14T11:37:43.294Z,75520.00
2017-10-14T11:38:43.305Z,78304.00
2017-10-14T11:39:43.312Z,80864.00
2017-10-14T11:40:43.318Z,71904.00
2017-10-14T11:41:43.353Z,71936.00
2017-10-14T11:42:43.337Z,70208.00
2017-10-14T11:43:43.348Z,72320.00
2017-10-14T11:44:43.353Z,71808.00
2017-10-14T11:45:43.362Z,66720.00
2017-10-14T11:46:43.371Z,122304.00
2017-10-14T11:47:43.379Z,123808.00
2017-10-14T11:48:43.388Z,24096.00
2017-10-14T11:49:43.397Z,10064.00
2017-10-14T11:50:43.406Z,10796.00
2017-10-14T11:51:43.417Z,50656.00
2017-10-14T11:52:43.425Z,41024.00
2017-10-14T11:53:43.431Z,33504.00
2017-10-14T11:54:43.439Z,30080.00
2017-10-14T11:55:43.448Z,26528.00
2017-10-14T11:56:43.457Z,25696.00
2017-10-14T11:57:43.475Z,24640.00
2017-10-14T11:58:43.469Z,23456.00
2017-10-14T11:59:43.482Z,23136.00
2017-10-14T12:00:43.487Z,23264.00
2017-10-14T12:01:43.495Z,22720.00
2017-10-14T12:02:43.504Z,21856.00
2017-10-14T12:03:43.509Z,22336.00
2017-10-14T12:04:43.516Z,21856.00
2017-10-14T12:05:43.525Z,21568.00
2017-10-14T12:06:43.532Z,21120.00
2017-10-14T12:07:43.540Z,20768.00
2017-10-14T12:08:43.546Z,21696.00
2017-10-14T12:09:43.555Z,21632.00
2017-10-14T12:10:43.564Z,21344.00
2017-10-14T12:11:43.576Z,21696.00
2017-10-14T12:12:43.577Z,20704.00
2017-10-14T12:13:43.585Z,20160.00
2017-10-14T12:14:43.609Z,20096.00
2017-10-14T12:15:43.600Z,19488.00
2017-10-14T12:16:43.608Z,19808.00
2017-10-14T12:17:43.618Z,19680.00
2017-10-14T12:18:43.623Z,16800.00
2017-10-14T12:19:43.639Z,19968.00
2017-10-14T12:20:43.661Z,19680.00
2017-10-14T12:21:43.646Z,19648.00
2017-10-14T12:22:43.653Z,19744.00
2017-10-14T12:23:43.661Z,19616.00
2017-10-14T12:24:43.671Z,20832.00
2017-10-14T12:25:43.676Z,17312.00
2017-10-14T12:26:43.684Z,21248.00
2017-10-14T12:27:43.693Z,19744.00
2017-10-14T12:28:43.700Z,20032.00
2017-10-14T12:29:43.734Z,21312.00
2017-10-14T12:30:43.715Z,20832.00